createdAt,value
2018-02-27T00:01:53.322Z,52.50
2018-02-27T00:04:20.445Z,52.70
2018-02-27T00:06:48.366Z,53.60
2018-02-27T00:09:14.747Z,53.60
2018-02-27T00:11:41.122Z,54.00
2018-02-27T00:14:07.490Z,53.90
2018-02-27T00:16:33.854Z,54.20
2018-02-27T00:19:00.967Z,54.30
2018-02-27T00:21:27.353Z,54.30
2018-02-27T00:23:53.736Z,54.20
2018-02-27T00:26:20.120Z,54.10
2018-02-27T00:28:46.503Z,54.10
2018-02-27T00:31:13.090Z,54.30
2018-02-27T00:33:39.478Z,54.40
2018-02-27T00:36:05.847Z,54.10
2018-02-27T00:38:32.210Z,54.30
2018-02-27T00:40:58.573Z,54.50
2018-02-27T00:43:25.708Z,56.00
2018-02-27T00:45:52.083Z,55.30
2018-02-27T00:48:19.200Z,55.50
2018-02-27T00:50:45.566Z,55.50
2018-02-27T00:53:11.941Z,55.50
2018-02-27T00:55:38.300Z,55.40
2018-02-27T00:58:04.683Z,55.00
2018-02-27T01:00:31.055Z,54.60
2018-02-27T01:02:57.424Z,55.00
2018-02-27T01:05:23.810Z,54.50
2018-02-27T01:07:50.228Z,54.60
2018-02-27T01:10:16.612Z,54.30
2018-02-27T01:12:43.053Z,54.50
2018-02-27T01:15:10.150Z,55.10
2018-02-27T01:17:36.514Z,55.10
2018-02-27T01:20:03.623Z,55.30
2018-02-27T01:22:30.030Z,55.20
2018-02-27T01:24:56.419Z,55.50
2018-02-27T01:27:23.529Z,55.40
2018-02-27T01:29:49.888Z,55.30
2018-02-27T01:32:17.730Z,56.00
2018-02-27T01:34:44.084Z,56.00
2018-02-27T01:37:11.930Z,56.20
2018-02-27T01:39:38.614Z,56.20
2018-02-27T01:42:05.718Z,56.60
2018-02-27T01:44:32.082Z,56.50
2018-02-27T01:46:59.204Z,57.20
2018-02-27T01:49:25.558Z,57.20
2018-02-27T01:51:52.660Z,57.20
2018-02-27T01:54:19.059Z,57.00
2018-02-27T01:56:45.434Z,56.10
2018-02-27T01:59:11.828Z,55.90
2018-02-27T02:01:38.215Z,56.00
2018-02-27T02:04:04.571Z,56.60
2018-02-27T02:06:31.677Z,56.20
2018-02-27T02:08:58.044Z,56.20
2018-02-27T02:11:25.171Z,56.80
2018-02-27T02:13:51.689Z,56.50
2018-02-27T02:16:18.064Z,56.40
2018-02-27T02:18:45.164Z,56.40
2018-02-27T02:21:11.548Z,56.40
2018-02-27T02:23:38.703Z,57.10
2018-02-27T02:26:05.808Z,57.10
2018-02-27T02:28:32.192Z,57.10
2018-02-27T02:30:58.556Z,57.10
2018-02-27T02:33:24.910Z,57.30
2018-02-27T02:35:51.278Z,57.50
2018-02-27T02:38:17.651Z,57.60
2018-02-27T02:40:44.018Z,57.90
2018-02-27T02:43:10.426Z,57.50
2018-02-27T02:45:36.814Z,57.80
2018-02-27T02:48:03.161Z,57.40
2018-02-27T02:50:29.517Z,57.40
2018-02-27T02:52:55.881Z,58.20
2018-02-27T02:55:22.985Z,58.60
2018-02-27T02:57:49.360Z,58.50
2018-02-27T03:00:15.720Z,58.60
2018-02-27T03:02:42.090Z,58.80
2018-02-27T03:05:08.448Z,58.60
2018-02-27T03:07:34.821Z,58.30
2018-02-27T03:10:01.202Z,58.50
2018-02-27T03:12:29.074Z,58.50
2018-02-27T03:14:55.432Z,58.50
2018-02-27T03:17:22.530Z,59.10
2018-02-27T03:19:48.900Z,59.00
2018-02-27T03:22:16.061Z,59.30
2018-02-27T03:24:43.166Z,58.80
2018-02-27T03:27:09.533Z,58.70
2018-02-27T03:29:36.639Z,59.40
2018-02-27T03:32:02.998Z,59.40
2018-02-27T03:34:29.378Z,59.60
2018-02-27T03:36:55.749Z,60.00
2018-02-27T03:39:22.166Z,60.40
2018-02-27T03:41:48.635Z,60.20
2018-02-27T03:44:15.733Z,59.80
2018-02-27T03:46:42.100Z,59.80
2018-02-27T03:49:08.475Z,59.60
2018-02-27T03:51:34.920Z,59.60
2018-02-27T03:54:01.286Z,59.00
2018-02-27T03:56:27.653Z,59.00
2018-02-27T03:58:54.743Z,59.50
2018-02-27T04:01:21.158Z,59.40
2018-02-27T04:03:47.512Z,59.40
2018-02-27T04:06:13.871Z,59.30
2018-02-27T04:08:40.265Z,59.60
2018-02-27T04:11:06.627Z,59.60
2018-02-27T04:13:32.986Z,59.80
2018-02-27T04:16:00.082Z,60.70
2018-02-27T04:18:26.448Z,60.70
2018-02-27T04:20:53.558Z,60.80
2018-02-27T04:23:19.948Z,60.80
2018-02-27T04:25:46.320Z,61.30
2018-02-27T04:28:12.688Z,61.40
2018-02-27T04:30:39.048Z,61.50
2018-02-27T04:33:05.409Z,61.30
2018-02-27T04:35:31.800Z,61.30
2018-02-27T04:37:58.191Z,61.50
2018-02-27T04:40:24.556Z,61.50
2018-02-27T04:42:51.725Z,61.20
2018-02-27T04:45:18.098Z,61.20
2018-02-27T04:47:44.452Z,61.70
2018-02-27T04:50:10.810Z,61.30
2018-02-27T04:52:37.175Z,60.70
2018-02-27T04:55:03.549Z,61.20
2018-02-27T04:57:29.963Z,61.00
2018-02-27T04:59:57.066Z,61.60
2018-02-27T05:02:23.411Z,61.70
2018-02-27T05:04:49.775Z,61.90
2018-02-27T05:07:16.193Z,62.40
2018-02-27T05:09:42.557Z,62.70
2018-02-27T05:12:09.653Z,63.30
2018-02-27T05:14:36.018Z,62.70
2018-02-27T05:17:02.381Z,62.50
2018-02-27T05:19:28.747Z,63.10
2018-02-27T05:21:55.118Z,63.60
2018-02-27T05:24:22.988Z,63.60
2018-02-27T05:26:50.113Z,63.20
2018-02-27T05:29:16.471Z,63.20
2018-02-27T05:31:43.629Z,63.90
2018-02-27T05:34:10.012Z,63.30
2018-02-27T05:36:36.377Z,63.40
2018-02-27T05:39:02.824Z,63.20
2018-02-27T05:41:29.947Z,63.80
2018-02-27T05:43:57.964Z,64.00
2018-02-27T05:46:24.395Z,63.90
2018-02-27T05:48:50.757Z,64.10
2018-02-27T05:51:17.208Z,64.50
2018-02-27T05:53:43.572Z,64.30
2018-02-27T05:56:10.676Z,64.20
2018-02-27T05:58:37.052Z,64.20
2018-02-27T06:01:04.173Z,64.30
2018-02-27T06:03:31.354Z,65.10
2018-02-27T06:05:58.516Z,64.30
2018-02-27T06:08:24.953Z,64.10
2018-02-27T06:10:51.327Z,64.50
2018-02-27T06:13:17.717Z,63.70
2018-02-27T06:15:44.096Z,63.50
2018-02-27T06:18:10.461Z,63.40
2018-02-27T06:20:37.571Z,62.60
2018-02-27T06:23:03.933Z,62.70
2018-02-27T06:25:31.047Z,63.00
2018-02-27T06:27:57.510Z,63.00
2018-02-27T06:30:23.915Z,62.90
2018-02-27T06:32:50.298Z,62.70
2018-02-27T06:35:17.390Z,63.40
2018-02-27T06:37:43.760Z,63.40
2018-02-27T06:40:11.820Z,62.60
2018-02-27T06:42:38.356Z,62.40
2018-02-27T06:45:05.469Z,62.40
2018-02-27T06:47:31.830Z,62.40
2018-02-27T06:49:58.964Z,61.30
2018-02-27T06:52:25.360Z,61.30
2018-02-27T06:54:51.812Z,60.40
2018-02-27T06:57:18.189Z,60.50
2018-02-27T06:59:44.607Z,60.30
2018-02-27T07:02:10.986Z,60.00
2018-02-27T07:04:37.340Z,59.30
2018-02-27T07:07:03.734Z,58.40
2018-02-27T07:09:30.226Z,59.10
2018-02-27T07:11:57.355Z,59.40
2018-02-27T07:14:23.752Z,58.90
2018-02-27T07:16:50.116Z,59.30
2018-02-27T07:19:16.489Z,59.30
2018-02-27T07:21:43.608Z,59.10
2018-02-27T07:24:09.969Z,58.50
2018-02-27T07:26:37.074Z,59.40
2018-02-27T07:29:03.439Z,58.80
2018-02-27T07:31:29.796Z,58.40
2018-02-27T07:33:56.173Z,58.90
2018-02-27T07:36:22.543Z,58.80
2018-02-27T07:38:48.906Z,59.40
2018-02-27T07:41:15.283Z,58.70
2018-02-27T07:43:41.653Z,58.40
2018-02-27T07:46:08.807Z,58.00
2018-02-27T07:48:35.184Z,58.00
2018-02-27T07:51:01.536Z,57.20
2018-02-27T07:53:29.394Z,57.10
2018-02-27T07:55:57.273Z,57.10
2018-02-27T07:58:23.637Z,57.10
2018-02-27T08:00:50.020Z,57.00
2018-02-27T08:03:16.383Z,57.00
2018-02-27T08:05:43.511Z,56.70
2018-02-27T08:08:09.876Z,56.70
2018-02-27T08:10:37.012Z,57.10
2018-02-27T08:13:04.188Z,57.90
2018-02-27T08:15:30.559Z,57.40
2018-02-27T08:17:56.938Z,57.10
2018-02-27T08:20:24.083Z,56.50
2018-02-27T08:22:51.187Z,55.90
2018-02-27T08:25:17.550Z,55.90
2018-02-27T08:27:44.659Z,55.30
2018-02-27T08:30:11.761Z,54.60
2018-02-27T08:32:38.861Z,54.60
2018-02-27T08:35:05.294Z,54.50
2018-02-27T08:37:31.692Z,53.90
2018-02-27T08:39:58.073Z,53.30
2018-02-27T08:42:24.595Z,53.70
2018-02-27T08:44:50.964Z,53.50
2018-02-27T08:47:18.076Z,53.70
2018-02-27T08:49:44.447Z,53.60
2018-02-27T08:52:11.554Z,53.60
2018-02-27T08:54:37.927Z,53.50
2018-02-27T08:57:04.325Z,53.00
2018-02-27T08:59:30.999Z,52.90
2018-02-27T09:01:57.399Z,52.60
2018-02-27T09:04:23.814Z,52.50
2018-02-27T09:06:50.221Z,51.60
2018-02-27T09:09:16.604Z,51.00
2018-02-27T09:11:43.710Z,51.90
2018-02-27T09:14:10.112Z,51.60
2018-02-27T09:16:36.563Z,52.00
2018-02-27T09:19:02.958Z,50.80
2018-02-27T09:21:29.307Z,50.30
2018-02-27T09:23:56.405Z,48.50
2018-02-27T09:26:22.795Z,48.50
2018-02-27T09:28:49.150Z,47.70
2018-02-27T09:31:15.512Z,47.70
2018-02-27T09:33:41.872Z,47.70
2018-02-27T09:36:08.996Z,47.80
2018-02-27T09:38:36.142Z,47.80
2018-02-27T09:41:02.481Z,48.00
2018-02-27T09:43:29.604Z,48.00
2018-02-27T09:45:55.987Z,48.00
2018-02-27T09:48:22.352Z,48.60
2018-02-27T09:50:48.710Z,47.50
2018-02-27T09:53:15.074Z,47.80
2018-02-27T09:55:42.200Z,48.60
2018-02-27T09:58:08.568Z,48.60
2018-02-27T10:00:35.004Z,49.10
2018-02-27T10:03:01.387Z,48.90
2018-02-27T10:05:27.814Z,49.20
2018-02-27T10:07:54.177Z,50.20
2018-02-27T10:10:21.271Z,48.20
2018-02-27T10:12:47.649Z,48.20
2018-02-27T10:15:14.774Z,48.00
2018-02-27T10:17:41.151Z,47.50
2018-02-27T10:20:07.572Z,47.10
2018-02-27T10:22:35.471Z,46.30
2018-02-27T10:25:01.842Z,46.00
2018-02-27T10:27:28.218Z,46.90
2018-02-27T10:29:54.586Z,46.80
2018-02-27T10:32:20.955Z,46.40
2018-02-27T10:34:48.068Z,47.00
2018-02-27T10:37:14.474Z,47.00
2018-02-27T10:39:41.596Z,47.00
2018-02-27T10:42:08.775Z,46.70
2018-02-27T10:44:35.182Z,46.60
2018-02-27T10:47:01.545Z,46.70
2018-02-27T10:49:27.903Z,46.20
2018-02-27T10:51:54.275Z,47.00
2018-02-27T10:54:20.636Z,46.50
2018-02-27T10:56:47.001Z,46.20
2018-02-27T10:59:13.382Z,45.30
2018-02-27T11:01:39.797Z,45.50
2018-02-27T11:04:06.170Z,45.10
2018-02-27T11:06:32.539Z,45.90
2018-02-27T11:08:58.909Z,45.80
2018-02-27T11:11:25.270Z,45.90
2018-02-27T11:13:51.666Z,45.50
2018-02-27T11:16:18.046Z,45.80
2018-02-27T11:18:44.424Z,45.30
2018-02-27T11:21:10.812Z,45.30
2018-02-27T11:23:37.267Z,44.80
2018-02-27T11:26:04.369Z,42.80
2018-02-27T11:28:30.724Z,42.80
2018-02-27T11:30:57.118Z,42.70
2018-02-27T11:33:23.487Z,43.40
2018-02-27T11:35:49.862Z,43.70
2018-02-27T11:38:16.292Z,43.60
2018-02-27T11:40:43.436Z,43.80
2018-02-27T11:43:10.543Z,44.70
2018-02-27T11:45:36.920Z,44.70
2018-02-27T11:48:04.029Z,43.90
2018-02-27T11:50:30.414Z,43.90
2018-02-27T11:52:56.783Z,44.70
2018-02-27T11:55:23.164Z,43.20
2018-02-27T11:57:50.259Z,44.00
2018-02-27T12:00:16.623Z,43.90
2018-02-27T12:02:42.994Z,43.80
2018-02-27T12:05:09.368Z,43.10
2018-02-27T12:07:36.488Z,44.60
2018-02-27T12:10:02.995Z,44.10
2018-02-27T12:12:29.361Z,42.90
2018-02-27T12:14:55.800Z,42.60
2018-02-27T12:17:22.178Z,43.00
2018-02-27T12:19:48.543Z,44.30
2018-02-27T12:22:14.920Z,44.00
2018-02-27T12:24:42.045Z,44.80
2018-02-27T12:27:09.925Z,45.30
2018-02-27T12:29:36.327Z,45.30
2018-02-27T12:32:03.527Z,45.60
2018-02-27T12:34:30.855Z,44.00
2018-02-27T12:36:57.249Z,44.00
2018-02-27T12:39:23.654Z,42.40
2018-02-27T12:41:50.769Z,43.00
2018-02-27T12:44:17.151Z,43.00
2018-02-27T12:46:43.500Z,42.90
2018-02-27T12:49:09.846Z,44.70
2018-02-27T12:51:36.211Z,44.60
2018-02-27T12:54:03.320Z,46.00
2018-02-27T12:56:29.700Z,45.70
2018-02-27T12:58:56.832Z,45.30
2018-02-27T13:01:23.948Z,43.90
2018-02-27T13:03:50.311Z,43.80
2018-02-27T13:06:16.670Z,44.00
2018-02-27T13:08:43.751Z,45.10
2018-02-27T13:11:10.120Z,45.10
2018-02-27T13:13:36.485Z,45.30
2018-02-27T13:16:02.872Z,45.40
2018-02-27T13:18:29.250Z,45.20
2018-02-27T13:20:55.681Z,45.50
2018-02-27T13:23:22.109Z,46.40
2018-02-27T13:25:49.368Z,45.00
2018-02-27T13:28:15.737Z,44.90
2018-02-27T13:30:42.180Z,44.80
2018-02-27T13:33:08.562Z,44.10
2018-02-27T13:35:35.653Z,44.50
2018-02-27T13:38:02.043Z,44.50
2018-02-27T13:40:28.428Z,44.40
2018-02-27T13:42:54.852Z,45.20
2018-02-27T13:45:21.208Z,45.30
2018-02-27T13:47:47.614Z,45.20
2018-02-27T13:50:13.981Z,46.00
2018-02-27T13:52:41.101Z,47.60
2018-02-27T13:55:07.484Z,47.50
2018-02-27T13:57:33.842Z,48.20
2018-02-27T14:00:00.207Z,48.20
2018-02-27T14:02:26.572Z,47.70
2018-02-27T14:04:52.942Z,46.90
2018-02-27T14:07:19.336Z,46.70
2018-02-27T14:09:45.702Z,46.60
2018-02-27T14:12:12.075Z,47.30
2018-02-27T14:14:38.447Z,46.80
2018-02-27T14:17:04.797Z,46.70
2018-02-27T14:19:31.173Z,47.10
2018-02-27T14:21:58.497Z,47.50
2018-02-27T14:24:24.859Z,48.00
2018-02-27T14:26:51.988Z,48.50
2018-02-27T14:29:19.051Z,48.50
2018-02-27T14:31:45.411Z,47.40
2018-02-27T14:34:11.774Z,46.80
2018-02-27T14:36:38.214Z,46.50
2018-02-27T14:39:04.638Z,46.70
2018-02-27T14:41:31.010Z,47.70
2018-02-27T14:43:58.103Z,48.80
2018-02-27T14:46:24.482Z,48.70
2018-02-27T14:48:50.842Z,48.30
2018-02-27T14:51:17.945Z,48.40
2018-02-27T14:53:44.306Z,48.40
2018-02-27T14:56:11.410Z,48.00
2018-02-27T14:58:37.767Z,47.50
2018-02-27T15:01:04.135Z,47.60
2018-02-27T15:03:31.287Z,47.00
2018-02-27T15:05:57.762Z,46.90
2018-02-27T15:08:24.208Z,47.30
2018-02-27T15:10:51.375Z,47.50
2018-02-27T15:13:18.490Z,47.30
2018-02-27T15:15:44.857Z,47.30
2018-02-27T15:18:11.968Z,46.40
2018-02-27T15:20:38.381Z,46.40
2018-02-27T15:23:04.771Z,47.70
2018-02-27T15:25:31.887Z,46.70
2018-02-27T15:27:58.287Z,46.70
2018-02-27T15:30:24.631Z,46.70
2018-02-27T15:32:50.996Z,46.40
2018-02-27T15:35:17.367Z,46.50
2018-02-27T15:37:43.722Z,45.60
2018-02-27T15:40:10.102Z,45.80
2018-02-27T15:42:37.206Z,44.90
2018-02-27T15:45:03.615Z,44.60
2018-02-27T15:47:29.984Z,45.80
2018-02-27T15:49:56.405Z,45.60
2018-02-27T15:52:22.750Z,44.20
2018-02-27T15:54:49.121Z,45.00
2018-02-27T15:57:15.510Z,47.10
2018-02-27T15:59:41.907Z,47.30
2018-02-27T16:02:08.280Z,47.40
2018-02-27T16:04:34.653Z,46.60
2018-02-27T16:07:01.754Z,45.40
2018-02-27T16:09:28.124Z,45.30
2018-02-27T16:11:55.230Z,46.20
2018-02-27T16:14:21.619Z,46.20
2018-02-27T16:16:47.983Z,46.30
2018-02-27T16:19:14.350Z,46.30
2018-02-27T16:21:40.728Z,46.30
2018-02-27T16:24:07.114Z,47.00
2018-02-27T16:26:33.479Z,47.10
2018-02-27T16:28:59.835Z,46.30
2018-02-27T16:31:26.186Z,46.80
2018-02-27T16:33:52.538Z,47.30
2018-02-27T16:36:20.398Z,48.60
2018-02-27T16:38:46.769Z,48.60
2018-02-27T16:41:13.838Z,47.60
2018-02-27T16:43:40.304Z,47.60
2018-02-27T16:46:06.694Z,48.20
2018-02-27T16:48:33.055Z,47.50
2018-02-27T16:50:59.437Z,47.70
2018-02-27T16:53:25.812Z,47.40
2018-02-27T16:55:52.206Z,48.00
2018-02-27T16:58:18.576Z,48.10
2018-02-27T17:00:44.977Z,48.40
2018-02-27T17:03:11.382Z,48.50
2018-02-27T17:05:38.540Z,48.20
2018-02-27T17:08:05.686Z,48.00
2018-02-27T17:10:32.833Z,47.60
2018-02-27T17:12:59.978Z,47.90
2018-02-27T17:15:27.085Z,47.90
2018-02-27T17:17:53.463Z,47.90
2018-02-27T17:20:20.622Z,48.70
2018-02-27T17:22:47.187Z,48.70
2018-02-27T17:25:13.739Z,48.90
2018-02-27T17:27:40.103Z,49.20
2018-02-27T17:30:07.237Z,48.00
2018-02-27T17:32:33.608Z,48.00
2018-02-27T17:35:00.045Z,48.10
2018-02-27T17:37:26.490Z,48.70
2018-02-27T17:39:58.686Z,49.40
2018-02-27T17:42:25.070Z,49.40
2018-02-27T17:44:52.163Z,51.30
2018-02-27T17:47:18.564Z,51.30
2018-02-27T17:49:44.942Z,52.30
2018-02-27T17:52:11.317Z,53.30
2018-02-27T17:54:37.704Z,53.40
2018-02-27T17:57:04.125Z,53.90
2018-02-27T17:59:30.508Z,54.10
2018-02-27T18:01:57.626Z,55.20
2018-02-27T18:04:23.991Z,55.20
2018-02-27T18:06:50.367Z,55.20
2018-02-27T18:09:16.787Z,55.20
2018-02-27T18:11:43.191Z,55.50
2018-02-27T18:14:09.568Z,55.30
2018-02-27T18:16:35.980Z,55.70
2018-02-27T18:19:02.365Z,56.60
2018-02-27T18:21:29.532Z,58.30
2018-02-27T18:23:55.959Z,58.30
2018-02-27T18:26:22.377Z,59.30
2018-02-27T18:28:49.536Z,60.90
2018-02-27T18:31:15.976Z,60.80
2018-02-27T18:33:42.385Z,61.90
2018-02-27T18:36:09.538Z,62.90
2018-02-27T18:38:36.694Z,63.90
2018-02-27T18:41:03.838Z,64.30
2018-02-27T18:43:30.262Z,64.20
2018-02-27T18:45:57.390Z,64.70
2018-02-27T18:48:23.787Z,64.50
2018-02-27T18:50:50.202Z,64.80
2018-02-27T18:53:16.596Z,65.50
2018-02-27T18:55:42.991Z,65.80
2018-02-27T18:58:09.367Z,66.00
2018-02-27T19:00:35.803Z,66.50
2018-02-27T19:03:02.250Z,67.50
2018-02-27T19:05:28.685Z,67.90
2018-02-27T19:07:55.831Z,68.50
2018-02-27T19:10:22.962Z,68.60
2018-02-27T19:12:49.392Z,68.60
2018-02-27T19:15:15.760Z,69.00
2018-02-27T19:17:42.158Z,69.30
2018-02-27T19:20:08.543Z,69.50
2018-02-27T19:22:34.920Z,70.50
2018-02-27T19:25:02.802Z,69.90
2018-02-27T19:27:29.891Z,71.20
2018-02-27T19:29:56.983Z,70.80
2018-02-27T19:32:24.103Z,70.70
2018-02-27T19:34:51.265Z,70.70
2018-02-27T19:37:17.657Z,70.70
2018-02-27T19:39:44.759Z,69.60
2018-02-27T19:42:11.133Z,69.60
2018-02-27T19:44:37.487Z,69.40
2018-02-27T19:47:03.869Z,69.30
2018-02-27T19:49:30.236Z,68.70
2018-02-27T19:51:56.596Z,68.70
2018-02-27T19:54:22.952Z,68.70
2018-02-27T19:56:49.322Z,68.60
2018-02-27T19:59:15.700Z,68.60
2018-02-27T20:01:42.874Z,68.40
2018-02-27T20:04:09.275Z,68.40
2018-02-27T20:06:35.648Z,68.40
2018-02-27T20:09:02.821Z,68.10
2018-02-27T20:11:29.187Z,68.10
2018-02-27T20:13:55.542Z,67.70
2018-02-27T20:16:21.929Z,67.80
2018-02-27T20:18:48.316Z,68.10
2018-02-27T20:21:15.510Z,67.30
2018-02-27T20:23:47.903Z,67.20
2018-02-27T20:26:14.255Z,67.00
2018-02-27T20:28:46.737Z,66.30
2018-02-27T20:31:13.118Z,66.00
2018-02-27T20:33:39.478Z,65.60
2018-02-27T20:36:05.878Z,65.40
2018-02-27T20:38:38.358Z,65.40
2018-02-27T20:41:04.723Z,65.50
2018-02-27T20:43:31.101Z,65.50
2018-02-27T20:45:57.472Z,65.70
2018-02-27T20:48:23.869Z,66.00
2018-02-27T20:50:50.271Z,65.60
2018-02-27T20:53:17.420Z,65.30
2018-02-27T20:55:44.620Z,65.60
2018-02-27T20:58:11.023Z,65.50
2018-02-27T21:00:37.449Z,65.60
2018-02-27T21:03:03.893Z,65.80
2018-02-27T21:05:30.339Z,66.10
2018-02-27T21:07:56.732Z,66.00
2018-02-27T21:10:23.910Z,65.80
2018-02-27T21:12:50.331Z,65.80
2018-02-27T21:15:16.748Z,65.80
2018-02-27T21:17:43.937Z,65.90
2018-02-27T21:20:11.098Z,66.20
2018-02-27T21:22:37.538Z,66.20
2018-02-27T21:25:03.959Z,66.60
2018-02-27T21:27:30.376Z,66.90
2018-02-27T21:29:56.771Z,67.20
2018-02-27T21:32:23.902Z,67.60
2018-02-27T21:34:50.315Z,67.60
2018-02-27T21:37:16.709Z,67.70
2018-02-27T21:39:43.126Z,67.50
2018-02-27T21:42:09.529Z,67.30
2018-02-27T21:44:36.691Z,66.90
2018-02-27T21:47:03.814Z,67.80
2018-02-27T21:49:30.158Z,67.70
2018-02-27T21:51:56.559Z,68.50
2018-02-27T21:54:22.957Z,68.10
2018-02-27T21:56:50.098Z,68.10
2018-02-27T21:59:17.229Z,68.40
2018-02-27T22:01:43.619Z,68.40
2018-02-27T22:04:10.301Z,68.00
2018-02-27T22:06:37.468Z,68.10
2018-02-27T22:09:03.965Z,67.70
2018-02-27T22:11:30.334Z,67.60
2018-02-27T22:13:57.449Z,67.40
2018-02-27T22:16:23.794Z,67.30
2018-02-27T22:18:50.896Z,67.00
2018-02-27T22:21:17.266Z,67.10
2018-02-27T22:23:43.641Z,66.60
2018-02-27T22:26:10.218Z,66.40
2018-02-27T22:28:36.592Z,66.40
2018-02-27T22:31:03.689Z,66.00
2018-02-27T22:33:30.079Z,65.90
2018-02-27T22:35:56.459Z,65.80
2018-02-27T22:38:22.848Z,65.90
2018-02-27T22:40:49.232Z,66.00
2018-02-27T22:43:15.589Z,66.30
2018-02-27T22:45:42.681Z,66.40
2018-02-27T22:48:09.038Z,66.40
2018-02-27T22:50:35.438Z,66.50
2018-02-27T22:53:01.805Z,66.40
2018-02-27T22:55:28.924Z,65.80
2018-02-27T22:57:55.370Z,65.80
2018-02-27T23:00:34.110Z,65.50
2018-02-27T23:03:00.557Z,65.10
2018-02-27T23:05:27.741Z,64.90
2018-02-27T23:07:54.102Z,64.90
2018-02-27T23:10:20.525Z,64.80
2018-02-27T23:12:46.933Z,64.40
2018-02-27T23:15:13.315Z,64.40
2018-02-27T23:17:39.695Z,64.30
2018-02-27T23:20:06.953Z,64.00
2018-02-27T23:22:33.324Z,63.90
2018-02-27T23:25:26.176Z,64.30
2018-02-27T23:27:54.306Z,64.50
2018-02-27T23:30:21.218Z,64.40
2018-02-27T23:32:50.515Z,64.80
2018-02-27T23:35:23.293Z,65.10
2018-02-27T23:37:49.660Z,65.10
2018-02-27T23:40:16.096Z,65.00
2018-02-27T23:42:42.498Z,64.80
2018-02-27T23:45:08.853Z,64.80
2018-02-27T23:47:35.252Z,65.20
2018-02-27T23:50:01.621Z,64.50
2018-02-27T23:52:28.020Z,64.30
2018-02-27T23:54:54.408Z,64.70
2018-02-27T23:57:20.779Z,65.50
2018-02-27T23:59:48.646Z,65.20
